Time;durP1;ratioP1;P1;durP2;ratioP2;P2;SDS_P1;SDS_P2;PMS_P1;PMS_P2;Temp;Humidity;BMP_temperature;BMP_pressure;BME280_temperature;BME280_humidity;BME280_pressure;Samples;Min_cycle;Max_cycle;Signal;HPM_P1;HPM_P2
2021/06/27 00:01:04;;;;;;;16.50;9.68;;;;;;;26.91;44.60;99357.34;5111000;28;20117;-66
2021/06/27 00:03:51;;;;;;;;;;;;;;;27.31;43.53;99413.34;5110226;28;20070;-66
2021/06/27 00:06:16;;;;;;;16.67;9.45;;;;;;;27.21;44.32;99404.88;5110407;28;19921;-66
2021/06/27 00:08:42;;;;;;;16.83;9.27;;;;;;;27.01;45.17;99383.31;5108601;28;20039;-66
2021/06/27 00:11:09;;;;;;;13.48;9.15;;;;;;;27.09;45.51;99396.66;5110357;28;20042;-67
2021/06/27 00:13:37;;;;;;;13.93;10.02;;;;;;;27.11;45.35;99391.75;5109934;28;20063;-67
2021/06/27 00:16:04;;;;;;;17.10;9.88;;;;;;;26.80;45.86;99364.50;5110418;28;20046;-67
2021/06/27 00:18:30;;;;;;;18.05;10.85;;;;;;;27.08;45.82;99406.84;5110489;28;20047;-66
2021/06/27 00:20:59;;;;;;;20.10;10.27;;;;;;;26.97;46.27;99404.94;5106707;28;20027;-66
2021/06/27 00:23:28;;;;;;;17.98;9.65;;;;;;;26.90;46.80;99401.50;5110180;28;20065;-66
2021/06/27 00:25:54;;;;;;;15.70;10.25;;;;;;;26.93;46.21;99412.00;5110315;28;20038;-66
2021/06/27 00:28:20;;;;;;;18.70;10.77;;;;;;;26.86;46.42;99408.56;5109869;28;20511;-66
2021/06/27 00:30:46;;;;;;;15.65;10.18;;;;;;;26.81;47.21;99398.25;5109485;28;20061;-66
2021/06/27 00:33:13;;;;;;;19.77;10.82;;;;;;;26.71;47.29;99387.06;5108857;28;20112;-66
2021/06/27 00:35:38;;;;;;;23.50;11.10;;;;;;;26.79;47.40;99405.91;5089287;28;20503;-66
2021/06/27 00:38:05;;;;;;;22.65;10.70;;;;;;;26.79;47.42;99406.75;5089494;28;20043;-66
2021/06/27 00:40:32;;;;;;;17.92;10.48;;;;;;;26.82;47.96;99407.34;5090336;28;20031;-65
2021/06/27 00:42:58;;;;;;;18.20;10.65;;;;;;;26.72;48.09;99394.22;5109935;28;20061;-65
2021/06/27 00:45:26;;;;;;;20.38;11.43;;;;;;;26.78;48.29;99413.34;5109332;28;20059;-65
2021/06/27 00:47:52;;;;;;;21.33;10.65;;;;;;;26.75;48.35;99396.50;5108963;28;20047;-67
2021/06/27 00:50:19;;;;;;;17.10;11.25;;;;;;;26.73;48.31;99401.41;5108793;28;20337;-68
2021/06/27 00:52:45;;;;;;;17.83;11.52;;;;;;;26.67;48.51;99400.44;5109025;28;20105;-66
2021/06/27 00:55:11;;;;;;;20.88;10.93;;;;;;;26.72;48.86;99402.47;5109882;28;20498;-64
2021/06/27 00:57:38;;;;;;;17.58;11.15;;;;;;;26.70;48.74;99416.44;5110163;28;20392;-65
2021/06/27 01:00:10;;;;;;;21.45;11.13;;;;;;;26.66;49.27;99401.53;5108149;28;20032;-64
2021/06/27 01:02:36;;;;;;;18.08;10.85;;;;;;;26.67;48.67;99405.94;5109498;28;20031;-64
2021/06/27 01:05:07;;;;;;;16.20;11.13;;;;;;;26.69;48.85;99425.75;5109880;28;20039;-64
2021/06/27 01:07:33;;;;;;;19.98;11.60;;;;;;;26.68;48.88;99413.09;5110347;28;20032;-64
2021/06/27 01:09:58;;;;;;;17.65;11.30;;;;;;;26.67;48.78;99405.94;5109701;28;20031;-64
2021/06/27 01:12:23;;;;;;;18.70;10.95;;;;;;;26.69;49.62;99402.97;5108421;28;20114;-64
2021/06/27 01:14:49;;;;;;;17.85;10.77;;;;;;;26.73;49.56;99404.13;5109751;28;20095;-63
2021/06/27 01:17:15;;;;;;;18.70;11.20;;;;;;;26.72;49.63;99408.78;5110405;28;20043;-64
2021/06/27 01:19:40;;;;;;;19.90;12.07;;;;;;;26.72;49.51;99408.78;5109855;28;20032;-64
2021/06/27 01:22:06;;;;;;;22.80;11.25;;;;;;;26.76;49.33;99412.72;5109432;28;20490;-64
2021/06/27 01:24:31;;;;;;;15.55;10.63;;;;;;;26.82;49.29;99412.84;5108462;28;20043;-64
2021/06/27 01:26:57;;;;;;;17.80;11.63;;;;;;;26.85;49.09;99428.88;5110164;28;20503;-63
2021/06/27 01:29:23;;;;;;;21.13;11.13;;;;;;;26.86;48.86;99414.06;5110070;28;20035;-63
2021/06/27 01:31:48;;;;;;;17.80;10.98;;;;;;;26.90;48.88;99426.22;5109007;28;20125;-63
2021/06/27 01:34:14;;;;;;;19.95;11.75;;;;;;;26.85;49.21;99402.22;5109600;28;20371;-63
2021/06/27 01:36:40;;;;;;;22.73;11.85;;;;;;;26.83;49.14;99396.09;5108068;28;20040;-64
2021/06/27 01:39:06;;;;;;;21.08;10.63;;;;;;;26.94;49.24;99392.53;5109742;28;20031;-64
2021/06/27 01:41:31;;;;;;;17.80;10.82;;;;;;;27.08;49.09;99406.00;5109068;28;20043;-64
2021/06/27 01:43:57;;;;;;;18.70;10.52;;;;;;;27.11;49.39;99408.25;5109462;28;20031;-64
2021/06/27 01:46:22;;;;;;;18.40;10.88;;;;;;;27.17;49.45;99409.19;5110191;28;20028;-64
2021/06/27 01:48:48;;;;;;;16.50;10.60;;;;;;;27.21;49.28;99408.47;5107738;28;20032;-64
2021/06/27 01:51:14;;;;;;;20.20;11.05;;;;;;;27.26;49.56;99416.00;5109316;28;20051;-64
2021/06/27 01:53:40;;;;;;;20.23;11.23;;;;;;;27.28;49.45;99419.31;5109216;28;20047;-64
2021/06/27 01:56:07;;;;;;;23.80;11.68;;;;;;;27.34;49.29;99417.50;5109808;28;20597;-65
2021/06/27 01:58:43;;;;;;;19.10;11.77;;;;;;;27.40;49.76;99418.44;5109144;28;20180;-65
2021/06/27 02:01:25;;;;;;;19.35;11.82;;;;;;;27.51;49.76;99415.66;5107340;28;20398;-66
2021/06/27 02:03:51;;;;;;;22.13;11.63;;;;;;;27.48;49.32;99409.78;5111798;28;20095;-66
2021/06/27 02:06:18;;;;;;;23.52;11.77;;;;;;;27.57;49.19;99411.09;5112871;28;20031;-66
2021/06/27 02:08:44;;;;;;;26.35;13.35;;;;;;;27.64;49.25;99406.28;5112487;28;20562;-65
2021/06/27 02:11:12;;;;;;;30.08;12.68;;;;;;;27.73;49.26;99412.22;5112574;28;20031;-66
2021/06/27 02:13:38;;;;;;;29.58;12.98;;;;;;;27.77;48.70;99402.38;5110884;28;20052;-65
2021/06/27 02:16:05;;;;;;;21.08;11.88;;;;;;;27.59;48.95;99350.34;5112699;28;20054;-65
2021/06/27 02:18:33;;;;;;;25.73;12.50;;;;;;;28.06;49.05;99420.75;5112274;28;20047;-66
2021/06/27 02:21:03;;;;;;;20.77;13.30;;;;;;;28.14;48.65;99398.28;5113434;28;20027;-66
2021/06/27 02:23:29;;;;;;;27.92;12.60;;;;;;;28.31;48.22;99386.47;5112984;28;20035;-65
2021/06/27 02:25:54;;;;;;;25.10;13.45;;;;;;;28.63;47.64;99399.59;5110871;28;20480;-66
2021/06/27 02:28:20;;;;;;;26.05;13.63;;;;;;;28.82;47.24;99393.81;5113080;28;20039;-64
2021/06/27 02:30:46;;;;;;;25.95;13.68;;;;;;;29.13;46.96;99405.22;5110997;28;20053;-64
2021/06/27 02:33:11;;;;;;;27.40;13.02;;;;;;;28.94;46.21;99347.69;5112527;28;20028;-64
2021/06/27 02:35:38;;;;;;;24.55;12.82;;;;;;;29.43;45.83;99382.69;5112665;28;20035;-66
2021/06/27 02:38:04;;;;;;;24.20;13.75;;;;;;;29.78;45.41;99397.09;5110771;28;20044;-66
2021/06/27 02:40:30;;;;;;;26.08;13.63;;;;;;;30.19;44.49;99411.28;5112354;28;20124;-66
2021/06/27 02:42:55;;;;;;;24.48;12.90;;;;;;;30.56;43.87;99405.97;5112707;28;20150;-66
2021/06/27 02:45:21;;;;;;;25.90;12.55;;;;;;;30.90;43.05;99414.75;5112554;28;20067;-66
2021/06/27 02:47:47;;;;;;;25.65;13.52;;;;;;;31.17;42.53;99418.47;5111871;28;20565;-66
2021/06/27 02:50:14;;;;;;;22.17;12.77;;;;;;;31.30;41.94;99414.38;5112021;28;20099;-67
2021/06/27 02:52:40;;;;;;;24.35;13.43;;;;;;;31.25;41.70;99403.31;5110633;28;20448;-66
2021/06/27 02:55:07;;;;;;;29.42;13.38;;;;;;;31.31;41.64;99416.03;5111231;28;20047;-66
2021/06/27 02:57:34;;;;;;;30.77;13.82;;;;;;;31.25;41.48;99403.31;5111903;28;20035;-66
2021/06/27 02:59:59;;;;;;;28.20;13.50;;;;;;;31.41;41.14;99413.28;5112482;28;20436;-64
2021/06/27 03:02:25;;;;;;;23.90;13.73;;;;;;;31.76;40.64;99402.56;5112195;28;20039;-64
2021/06/27 03:04:50;;;;;;;31.75;13.70;;;;;;;32.19;39.75;99394.00;5110152;28;20039;-65
2021/06/27 03:07:16;;;;;;;24.25;13.00;;;;;;;32.52;39.12;99379.84;5111621;28;20035;-65
2021/06/27 03:09:41;;;;;;;27.13;13.05;;;;;;;32.88;37.75;99360.34;5111959;28;20379;-64
2021/06/27 03:12:07;;;;;;;23.92;13.38;;;;;;;33.49;37.14;99392.47;5112186;28;20410;-65
2021/06/27 03:14:33;;;;;;;29.67;13.55;;;;;;;33.72;35.94;99355.94;5111469;28;20055;-64
2021/06/27 03:16:58;;;;;;;24.88;13.40;;;;;;;34.29;35.32;99383.25;5108793;28;20081;-65
2021/06/27 03:19:24;;;;;;;22.58;12.52;;;;;;;34.63;34.40;99382.34;5111356;28;20032;-65
2021/06/27 03:21:49;;;;;;;26.65;12.77;;;;;;;35.16;33.74;99403.69;5111957;28;20036;-65
2021/06/27 03:24:15;;;;;;;23.90;12.93;;;;;;;35.50;32.88;99408.19;5111620;28;20195;-66
2021/06/27 03:26:41;;;;;;;22.45;12.88;;;;;;;35.76;32.08;99405.06;5111405;28;20056;-65
2021/06/27 03:29:07;;;;;;;15.68;11.70;;;;;;;35.87;31.23;99394.56;5109546;28;20550;-65
2021/06/27 03:31:33;;;;;;;19.67;12.07;;;;;;;35.99;30.77;99390.50;5112225;28;20047;-65
2021/06/27 03:33:59;;;;;;;19.90;12.60;;;;;;;36.13;30.46;99388.59;5112170;28;20027;-63
2021/06/27 03:36:24;;;;;;;18.00;12.15;;;;;;;36.35;29.70;99385.13;5110039;28;20114;-63
2021/06/27 03:41:23;;;;;;;17.20;11.95;;;;;;;36.77;28.62;99399.09;5109663;28;20027;-65
2021/06/27 03:43:48;;;;;;;22.02;11.65;;;;;;;37.12;28.34;99400.66;5111112;28;20032;-64
2021/06/27 03:46:15;;;;;;;17.58;11.95;;;;;;;37.45;27.87;99400.47;5109636;28;20031;-67
2021/06/27 03:48:40;;;;;;;16.73;10.65;;;;;;;37.84;26.89;99384.22;5110771;28;20035;-66
2021/06/27 03:51:06;;;;;;;13.23;10.60;;;;;;;38.38;25.78;99391.78;5111440;28;20050;-67
2021/06/27 03:53:32;;;;;;;17.73;10.82;;;;;;;38.66;25.56;99392.41;5109272;28;20067;-66
2021/06/27 03:55:58;;;;;;;14.60;10.48;;;;;;;38.99;24.83;99408.81;5110775;28;20101;-67
2021/06/27 03:58:27;;;;;;;14.57;10.57;;;;;;;39.48;23.99;99416.34;5110785;28;20038;-68
2021/06/27 04:00:54;;;;;;;13.25;9.73;;;;;;;39.83;23.67;99416.38;5110542;28;20032;-67
2021/06/27 04:03:20;;;;;;;12.38;10.18;;;;;;;40.19;23.14;99398.31;5110502;28;20113;-67
2021/06/27 04:05:45;;;;;;;12.35;9.55;;;;;;;40.38;22.22;99349.44;5109872;28;20031;-66
2021/06/27 04:08:11;;;;;;;14.35;9.40;;;;;;;41.09;21.48;99405.22;5108787;28;20096;-67
2021/06/27 04:10:36;;;;;;;11.45;9.32;;;;;;;41.42;21.00;99399.72;5110934;28;20340;-67
2021/06/27 04:13:02;;;;;;;17.55;9.60;;;;;;;41.93;20.70;99407.22;5110833;28;20023;-67
2021/06/27 04:15:27;;;;;;;15.70;9.80;;;;;;;42.23;20.39;99392.22;5110077;28;20039;-68
2021/06/27 04:17:53;;;;;;;13.70;10.18;;;;;;;42.65;19.97;99402.47;5110654;28;20047;-68
2021/06/27 04:20:18;;;;;;;16.58;10.02;;;;;;;42.96;19.31;99390.63;5108439;28;20144;-67
2021/06/27 04:22:44;;;;;;;11.95;10.27;;;;;;;43.29;18.80;99388.84;5110216;28;20072;-68
2021/06/27 04:25:10;;;;;;;11.20;9.90;;;;;;;43.72;18.72;99412.66;5110465;28;20410;-68
2021/06/27 04:27:37;;;;;;;13.35;10.68;;;;;;;44.04;18.25;99411.91;5110628;28;20035;-68
2021/06/27 04:30:07;;;;;;;18.70;11.82;;;;;;;44.42;17.76;99415.34;5110830;28;20034;-68
2021/06/27 04:32:34;;;;;;;16.38;11.68;;;;;;;44.83;17.31;99412.31;5109444;28;20491;-69
2021/06/27 04:34:59;;;;;;;19.45;12.40;;;;;;;45.19;17.32;99392.56;5110103;28;20498;-70
2021/06/27 04:37:25;;;;;;;14.15;11.27;;;;;;;45.69;16.94;99404.97;5110064;28;20072;-68
2021/06/27 04:39:50;;;;;;;17.35;11.55;;;;;;;46.01;16.13;99401.97;5110621;28;20475;-70
2021/06/27 04:42:16;;;;;;;13.60;8.85;;;;;;;46.07;15.43;99396.00;5109745;28;20036;-67
2021/06/27 04:44:41;;;;;;;12.02;9.63;;;;;;;46.43;14.79;99391.81;5108269;28;20035;-67
2021/06/27 04:47:08;;;;;;;10.10;8.52;;;;;;;47.14;14.00;99403.84;5110749;28;20453;-68
2021/06/27 04:49:35;;;;;;;16.65;9.07;;;;;;;47.74;13.44;99399.38;5110695;28;20058;-66
2021/06/27 04:52:01;;;;;;;10.38;8.70;;;;;;;48.10;13.06;99391.28;5110087;28;20035;-70
2021/06/27 04:54:26;;;;;;;13.25;9.05;;;;;;;48.07;13.02;99406.25;5109853;28;20092;-68
2021/06/27 04:56:52;;;;;;;13.05;9.23;;;;;;;48.35;12.69;99399.19;5108739;28;20448;-73
2021/06/27 04:59:17;;;;;;;16.80;11.48;;;;;;;48.43;12.54;99389.56;5110512;28;20027;-67
2021/06/27 05:01:43;;;;;;;14.35;10.70;;;;;;;48.85;12.19;99392.31;5110219;28;20073;-67
2021/06/27 05:04:08;;;;;;;15.63;11.07;;;;;;;49.46;12.20;99377.63;5110261;28;20479;-66
2021/06/27 05:06:33;;;;;;;15.50;11.18;;;;;;;49.94;11.61;99370.06;5110714;28;20403;-69
2021/06/27 05:08:59;;;;;;;16.65;10.52;;;;;;;49.97;11.45;99340.81;5100243;28;20486;-66
2021/06/27 05:11:24;;;;;;;18.45;11.05;;;;;;;50.44;11.20;99368.47;5089404;28;20974;-67
2021/06/27 05:13:50;;;;;;;14.82;11.55;;;;;;;51.04;11.31;99374.50;5089342;28;20078;-69
2021/06/27 05:16:15;;;;;;;20.25;11.90;;;;;;;51.54;10.57;99365.72;5089726;28;20048;-68
2021/06/27 05:18:41;;;;;;;18.23;12.20;;;;;;;51.67;10.62;99371.00;5090024;28;20043;-67
2021/06/27 05:21:06;;;;;;;19.08;13.20;;;;;;;51.85;10.19;99352.94;5090509;28;20039;-66
2021/06/27 05:23:32;;;;;;;22.00;12.35;;;;;;;52.15;10.22;99357.22;5089659;28;20039;-68
2021/06/27 05:25:57;;;;;;;15.63;11.18;;;;;;;52.24;9.63;99348.97;5089659;28;20887;-69
2021/06/27 05:28:23;;;;;;;13.30;10.02;;;;;;;52.36;9.44;99368.50;5089842;28;20035;-69
2021/06/27 05:30:48;;;;;;;12.30;9.65;;;;;;;52.65;9.29;99368.19;5089017;28;20430;-68
2021/06/27 05:33:13;;;;;;;13.90;8.88;;;;;;;53.16;8.88;99359.09;5090430;28;20035;-65
2021/06/27 05:35:39;;;;;;;16.00;9.90;;;;;;;53.41;8.94;99357.13;5089808;28;20052;-70
2021/06/27 05:38:05;;;;;;;15.70;9.88;;;;;;;53.77;8.76;99371.75;5091610;28;20032;-69
2021/06/27 05:40:30;;;;;;;14.25;9.63;;;;;;;54.06;8.67;99356.22;5093035;28;20040;-67
2021/06/27 05:42:56;;;;;;;10.00;8.55;;;;;;;54.33;7.60;99372.53;5091682;28;20486;-67
2021/06/27 05:45:22;;;;;;;9.02;8.10;;;;;;;54.62;7.71;99369.97;5093383;28;20089;-67
2021/06/27 05:47:47;;;;;;;10.10;8.43;;;;;;;55.29;7.25;99364.59;5094269;28;20040;-69
2021/06/27 05:50:13;;;;;;;11.32;9.57;;;;;;;55.43;7.31;99360.63;5108444;28;20063;-66
2021/06/27 05:52:39;;;;;;;10.95;9.38;;;;;;;55.47;6.83;99365.03;5113795;28;20031;-68
2021/06/27 05:55:05;;;;;;;10.45;8.80;;;;;;;55.44;7.17;99363.03;5112908;28;20036;-69
2021/06/27 05:57:31;;;;;;;8.45;7.47;;;;;;;55.36;6.84;99373.06;5113000;28;20908;-70
2021/06/27 05:59:57;;;;;;;7.70;6.88;;;;;;;54.86;7.26;99358.47;5111347;28;20039;-67
2021/06/27 06:02:22;;;;;;;11.15;7.85;;;;;;;55.10;7.21;99352.69;5113168;28;20050;-68
2021/06/27 06:04:48;;;;;;;8.18;7.38;;;;;;;55.83;6.95;99351.88;5113178;28;20067;-68
2021/06/27 06:07:13;;;;;;;10.93;8.52;;;;;;;56.61;6.21;99346.66;5111657;28;20432;-66
2021/06/27 06:09:39;;;;;;;12.65;8.68;;;;;;;57.23;6.10;99353.53;5111783;28;20046;-68
2021/06/27 06:12:05;;;;;;;12.32;10.02;;;;;;;57.53;6.05;99355.09;5111081;28;20032;-68
2021/06/27 06:14:32;;;;;;;14.57;10.88;;;;;;;57.95;5.83;99354.16;5112801;28;20074;-68
2021/06/27 06:16:57;;;;;;;14.07;10.73;;;;;;;58.30;5.42;99348.44;5112666;28;20438;-68
2021/06/27 06:19:24;;;;;;;14.52;10.75;;;;;;;58.47;5.75;99336.75;5113440;28;20035;-68
2021/06/27 06:21:50;;;;;;;12.18;10.30;;;;;;;58.48;5.57;99350.69;5112832;27;20046;-69
2021/06/27 06:24:17;;;;;;;9.90;8.95;;;;;;;58.67;5.02;99342.22;5110983;27;20023;-68
2021/06/27 06:26:43;;;;;;;13.35;10.13;;;;;;;58.70;5.17;99340.47;5113132;28;20472;-67
2021/06/27 06:29:08;;;;;;;9.43;8.57;;;;;;;58.29;5.37;99334.53;5112922;28;20256;-66
2021/06/27 06:31:34;;;;;;;10.57;9.57;;;;;;;58.38;5.36;99336.69;5112253;28;20036;-61
2021/06/27 06:33:59;;;;;;;11.13;8.88;;;;;;;58.61;4.82;99344.09;5112429;27;20040;-62
2021/06/27 06:36:25;;;;;;;10.25;9.10;;;;;;;58.94;5.02;99343.69;5110802;28;20040;-61
2021/06/27 06:38:51;;;;;;;10.35;8.95;;;;;;;59.35;4.90;99334.31;5112144;27;20490;-61
2021/06/27 06:41:17;;;;;;;10.93;9.40;;;;;;;59.71;4.89;99353.09;5112081;28;20042;-61
2021/06/27 06:43:42;;;;;;;10.27;9.32;;;;;;;60.04;4.32;99341.00;5112878;28;20038;-61
2021/06/27 06:46:08;;;;;;;10.48;9.57;;;;;;;60.53;4.23;99333.50;5112194;28;20032;-61
2021/06/27 06:48:33;;;;;;;10.93;9.68;;;;;;;60.72;3.71;99331.44;5109573;28;20531;-62
2021/06/27 06:50:59;;;;;;;10.35;9.20;;;;;;;60.73;3.82;99329.31;5111622;28;20119;-63
2021/06/27 06:53:24;;;;;;;11.07;9.98;;;;;;;60.89;3.88;99334.75;5112446;28;20036;-59
2021/06/27 06:55:50;;;;;;;11.43;10.40;;;;;;;61.21;3.67;99336.59;5111752;28;20058;-60
2021/06/27 06:58:16;;;;;;;12.10;11.13;;;;;;;61.17;3.53;99314.44;5111627;27;20366;-63
2021/06/27 07:00:41;;;;;;;11.93;10.85;;;;;;;61.83;3.06;99340.25;5112364;28;20088;-62
2021/06/27 07:03:08;;;;;;;12.70;11.63;;;;;;;61.67;2.96;99333.53;5110419;28;20452;-61
2021/06/27 07:05:34;;;;;;;12.57;11.55;;;;;;;61.51;3.24;99345.53;5111923;28;20555;-63
2021/06/27 07:08:00;;;;;;;12.80;11.85;;;;;;;61.29;3.14;99332.91;5111666;28;20035;-61
2021/06/27 07:10:25;;;;;;;12.32;11.48;;;;;;;61.49;3.74;99328.63;5111216;28;20032;-65
2021/06/27 07:12:51;;;;;;;13.63;12.48;;;;;;;61.40;3.31;99335.25;5107270;28;20069;-61
2021/06/27 07:15:17;;;;;;;14.63;13.52;;;;;;;61.51;3.31;99336.84;5100905;28;20361;-64
2021/06/27 07:17:42;;;;;;;14.38;13.25;;;;;;;61.89;3.67;99337.47;5091349;28;20040;-61
2021/06/27 07:20:09;;;;;;;12.55;11.63;;;;;;;62.04;3.13;99355.69;5091104;28;20032;-61
2021/06/27 07:22:36;;;;;;;12.63;11.80;;;;;;;62.04;3.06;99343.31;5090213;28;20490;-62
2021/06/27 07:25:02;;;;;;;12.10;11.05;;;;;;;62.11;2.80;99346.69;5091040;28;20039;-61
2021/06/27 07:27:28;;;;;;;12.57;11.55;;;;;;;61.64;3.17;99336.63;5091327;28;20440;-61
2021/06/27 07:29:53;;;;;;;12.07;11.10;;;;;;;61.24;3.75;99332.75;5090860;28;20209;-62
2021/06/27 07:32:19;;;;;;;11.38;10.57;;;;;;;60.98;3.66;99330.25;5090071;28;20737;-61
2021/06/27 07:34:44;;;;;;;12.00;11.20;;;;;;;60.81;3.19;99309.53;5091190;28;20032;-61
2021/06/27 07:37:10;;;;;;;13.27;12.07;;;;;;;61.02;3.47;99336.69;5091014;28;20411;-63
2021/06/27 07:39:36;;;;;;;12.60;11.60;;;;;;;60.48;4.42;99331.25;5091669;28;20027;-64
2021/06/27 07:42:02;;;;;;;13.60;12.60;;;;;;;60.63;3.73;99321.94;5091299;28;20047;-62
2021/06/27 07:44:27;;;;;;;12.63;11.43;;;;;;;60.26;4.57;99329.31;5090514;28;20044;-65
2021/06/27 07:46:53;;;;;;;12.70;11.70;;;;;;;60.31;4.21;99298.97;5090584;28;20027;-61
2021/06/27 07:49:18;;;;;;;12.70;11.75;;;;;;;60.82;3.44;99329.31;5090961;28;20032;-64
2021/06/27 07:51:44;;;;;;;11.85;10.85;;;;;;;61.07;3.41;99341.00;5090169;28;20506;-68
2021/06/27 07:54:09;;;;;;;12.40;11.40;;;;;;;61.45;2.88;99319.34;5090363;28;20127;-62
2021/06/27 07:56:35;;;;;;;13.25;12.10;;;;;;;61.99;2.38;99331.13;5090118;28;20066;-62
2021/06/27 07:59:00;;;;;;;14.05;12.98;;;;;;;62.15;2.90;99327.00;5089826;28;20400;-62
2021/06/27 08:01:26;;;;;;;14.30;13.30;;;;;;;61.92;2.83;99325.69;5090279;28;20024;-61
2021/06/27 08:03:51;;;;;;;14.43;13.10;;;;;;;61.57;3.18;99332.00;5088769;28;20043;-62
2021/06/27 08:06:18;;;;;;;13.57;12.35;;;;;;;59.10;4.23;99310.13;5105624;28;20352;-63
2021/06/27 08:08:43;;;;;;;11.80;10.77;;;;;;;56.16;5.65;99293.66;5110806;28;20144;-59
2021/06/27 08:11:09;;;;;;;12.40;10.25;;;;;;;53.13;7.47;99311.34;5110150;28;20169;-61
2021/06/27 08:13:35;;;;;;;10.40;9.45;;;;;;;50.39;9.64;99276.53;5110259;28;20083;-59
2021/06/27 08:16:00;;;;;;;9.77;8.85;;;;;;;50.03;9.75;99299.31;5110464;28;20043;-59
2021/06/27 08:18:26;;;;;;;9.18;8.23;;;;;;;50.71;9.33;99288.28;5108575;28;20115;-64
2021/06/27 08:20:52;;;;;;;8.25;7.45;;;;;;;51.33;8.53;99297.41;5110589;28;20044;-62
2021/06/27 08:23:17;;;;;;;7.03;6.35;;;;;;;51.56;8.44;99294.03;5109173;28;20069;-61
2021/06/27 08:25:43;;;;;;;7.13;6.53;;;;;;;50.75;8.99;99309.03;5110379;28;20054;-62
2021/06/27 08:28:08;;;;;;;7.32;6.57;;;;;;;49.59;9.67;99311.84;5110349;28;20085;-60
2021/06/27 08:30:34;;;;;;;7.20;6.40;;;;;;;48.29;10.67;99304.28;5109172;28;20417;-60
2021/06/27 08:32:59;;;;;;;7.45;6.10;;;;;;;47.01;11.82;99293.59;5110528;28;20039;-60
2021/06/27 08:35:25;;;;;;;6.70;6.05;;;;;;;45.88;12.38;99312.84;5110239;28;20047;-60
2021/06/27 08:37:51;;;;;;;7.05;5.93;;;;;;;45.02;13.05;99310.72;5110545;28;20039;-64
2021/06/27 08:40:18;;;;;;;7.05;6.35;;;;;;;44.33;13.50;99302.66;5110991;28;20074;-62
2021/06/27 08:42:44;;;;;;;7.88;6.18;;;;;;;43.71;13.97;99289.00;5107665;28;20462;-61
2021/06/27 08:45:11;;;;;;;8.02;7.32;;;;;;;43.27;14.83;99309.44;5109738;28;20031;-62
2021/06/27 08:47:38;;;;;;;9.02;8.00;;;;;;;42.80;15.86;99306.03;5091820;28;20444;-64
2021/06/27 08:50:06;;;;;;;8.63;7.80;;;;;;;42.45;16.41;99313.03;5100761;28;20028;-62
2021/06/27 08:52:33;;;;;;;9.00;8.23;;;;;;;42.18;16.19;99292.00;5091981;28;20097;-65
2021/06/27 08:55:00;;;;;;;9.68;8.77;;;;;;;41.93;17.00;99300.38;5096860;28;20130;-61
2021/06/27 08:57:26;;;;;;;10.15;9.25;;;;;;;41.67;17.44;99307.13;5088094;28;20245;-65
2021/06/27 08:59:53;;;;;;;9.35;8.55;;;;;;;41.26;17.66;99294.78;5088213;28;20044;-67
2021/06/27 09:02:19;;;;;;;10.18;8.35;;;;;;;40.82;18.17;99256.63;5086683;28;20119;-64
2021/06/27 09:04:45;;;;;;;9.52;8.75;;;;;;;40.99;18.37;99300.56;5088132;28;20127;-63
2021/06/27 09:07:30;;;;;;;9.05;8.20;;;;;;;41.15;18.36;99294.34;5090011;28;20077;-65
2021/06/27 09:10:09;;;;;;;10.10;9.30;;;;;;;40.97;18.62;99304.91;5093516;28;20046;-63
2021/06/27 09:12:58;;;;;;;10.55;9.55;;;;;;;40.98;18.89;99293.31;5106996;28;20039;-64
2021/06/27 09:15:42;;;;;;;10.18;9.18;;;;;;;41.09;18.87;99284.50;5111053;27;20061;-67
2021/06/27 09:18:13;;;;;;;10.63;9.57;;;;;;;41.13;19.05;99300.31;5111938;28;20124;-65
2021/06/27 09:20:39;;;;;;;10.50;9.60;;;;;;;40.94;18.91;99272.72;5097784;28;20036;-63
2021/06/27 09:23:06;;;;;;;9.85;9.05;;;;;;;41.01;18.15;99295.47;5104313;28;20605;-63
2021/06/27 09:25:33;;;;;;;9.15;8.35;;;;;;;41.04;18.13;99288.31;5109617;28;20130;-70
2021/06/27 09:28:17;;;;;;;10.65;8.88;;;;;;;41.07;18.21;99303.66;5109929;27;20096;-69
2021/06/27 09:30:53;;;;;;;11.00;8.95;;;;;;;41.31;18.10;99298.19;5100331;28;20031;-60
2021/06/27 09:33:21;;;;;;;10.07;9.02;;;;;;;41.34;18.06;99296.66;5097739;28;20100;-61
2021/06/27 09:36:00;;;;;;;10.48;9.68;;;;;;;41.47;18.33;99286.28;5092716;28;20043;-64
2021/06/27 09:38:42;;;;;;;11.48;9.63;;;;;;;41.12;18.96;99273.41;5101186;28;20526;-60
2021/06/27 09:41:24;;;;;;;10.00;9.07;;;;;;;41.12;18.79;99278.19;5108549;28;20042;-60
2021/06/27 09:43:52;;;;;;;9.63;8.82;;;;;;;41.09;18.63;99281.69;5088800;28;20122;-59
2021/06/27 09:46:28;;;;;;;9.23;8.00;;;;;;;41.10;18.50;99272.91;5103512;28;20439;-63
2021/06/27 09:48:56;;;;;;;9.13;8.32;;;;;;;41.11;18.18;99273.75;5096189;28;20042;-66
2021/06/27 09:51:24;;;;;;;10.45;8.85;;;;;;;40.88;18.39;99260.06;5095199;28;20030;-62
2021/06/27 09:53:50;;;;;;;9.68;8.50;;;;;;;40.85;18.07;99271.97;5105456;28;20032;-62
2021/06/27 09:56:16;;;;;;;9.23;8.40;;;;;;;40.73;17.83;99265.09;5102007;28;20032;-61
2021/06/27 09:59:09;;;;;;;9.18;7.80;;;;;;;40.67;17.65;99260.84;5109281;28;20119;-61
2021/06/27 10:01:37;;;;;;;9.20;8.40;;;;;;;40.28;18.13;99276.94;5093893;28;20044;-61
2021/06/27 10:04:08;;;;;;;8.30;7.47;;;;;;;39.49;18.44;99255.53;5100453;28;20391;-63
2021/06/27 10:06:36;;;;;;;8.88;7.80;;;;;;;39.11;19.27;99268.25;5098635;28;20110;-64
2021/06/27 10:09:15;;;;;;;9.80;8.80;;;;;;;39.00;19.78;99278.94;5103348;28;20119;-63
2021/06/27 10:12:12;;;;;;;10.73;9.63;;;;;;;39.15;20.26;99266.44;5091563;28;20597;-64
2021/06/27 10:14:50;;;;;;;9.73;8.80;;;;;;;39.41;19.90;99254.41;5088162;28;20052;-62
2021/06/27 10:17:17;;;;;;;9.80;8.98;;;;;;;39.66;19.65;99259.47;5107866;28;20051;-60
2021/06/27 10:19:44;;;;;;;9.82;8.95;;;;;;;39.75;19.82;99251.84;5097915;28;20139;-62
2021/06/27 10:22:09;;;;;;;10.70;9.38;;;;;;;39.74;19.83;99251.03;5105228;28;20035;-65
2021/06/27 10:24:35;;;;;;;8.77;7.95;;;;;;;39.58;19.53;99205.94;5099551;28;20035;-61
2021/06/27 10:27:01;;;;;;;11.18;7.88;;;;;;;39.92;18.98;99245.41;5094585;28;20457;-65
2021/06/27 10:29:26;;;;;;;8.30;7.50;;;;;;;40.00;18.68;99243.69;5094753;28;20035;-63
2021/06/27 10:31:55;;;;;;;7.85;7.05;;;;;;;40.03;18.74;99245.81;5110299;28;20035;-61
2021/06/27 10:34:22;;;;;;;8.18;7.63;;;;;;;40.01;18.61;99248.16;5101781;28;20031;-65
2021/06/27 10:36:52;;;;;;;8.48;7.65;;;;;;;39.42;18.50;99151.63;5088069;28;20487;-61
2021/06/27 10:39:18;;;;;;;8.70;7.90;;;;;;;40.09;18.91;99241.69;5093174;28;20085;-62
2021/06/27 10:41:54;;;;;;;10.85;9.20;;;;;;;40.05;19.00;99238.75;5105509;27;20445;-63
2021/06/27 10:44:24;;;;;;;9.02;8.27;;;;;;;40.05;19.66;99243.53;5098831;28;20495;-63
2021/06/27 10:46:52;;;;;;;9.93;9.07;;;;;;;40.17;19.60;99251.22;5091036;28;20028;-64
2021/06/27 10:49:30;;;;;;;8.95;8.15;;;;;;;40.33;19.44;99237.47;5093720;28;20036;-65
2021/06/27 10:51:59;;;;;;;10.25;8.98;;;;;;;40.23;19.44;99241.47;5107726;28;20491;-67
2021/06/27 10:54:24;;;;;;;8.68;7.97;;;;;;;39.79;19.69;99167.97;5100063;28;20043;-65
2021/06/27 10:57:04;;;;;;;10.32;8.43;;;;;;;39.93;19.46;99229.41;5106304;28;20028;-64
2021/06/27 10:59:38;;;;;;;10.50;9.50;;;;;;;39.67;19.53;99211.53;5091116;28;20053;-61
2021/06/27 11:02:22;;;;;;;9.90;9.10;;;;;;;39.53;20.15;99250.13;5101435;28;20047;-64
2021/06/27 11:04:53;;;;;;;9.45;8.65;;;;;;;39.22;20.28;99243.53;5106471;28;20093;-63
2021/06/27 11:07:31;;;;;;;9.88;8.95;;;;;;;39.08;20.53;99226.13;5093694;28;20048;-62
2021/06/27 11:10:19;;;;;;;9.40;8.20;;;;;;;39.02;20.64;99225.47;5102795;28;20041;-65
2021/06/27 11:13:03;;;;;;;9.63;8.65;;;;;;;38.87;19.73;99170.78;5099057;28;20039;-63
2021/06/27 11:15:32;;;;;;;9.93;7.70;;;;;;;39.31;19.09;99215.53;5100598;28;20060;-63
2021/06/27 11:18:03;;;;;;;8.55;7.68;;;;;;;39.47;18.74;99210.25;5106638;28;20081;-62
2021/06/27 11:20:54;;;;;;;9.38;7.63;;;;;;;39.47;18.60;99208.28;5095955;28;20036;-61
2021/06/27 11:23:48;;;;;;;9.50;8.65;;;;;;;39.48;19.59;99203.50;5088990;28;20040;-60
2021/06/27 11:26:38;;;;;;;12.18;10.07;;;;;;;39.22;20.17;99195.94;5096946;28;20462;-61
2021/06/27 11:29:23;;;;;;;11.27;10.15;;;;;;;39.00;20.67;99196.97;5097985;28;20145;-62